Terminal Aerodrome Forecast
Issued by NWS Sioux Falls, SD

Home | Current Version | Previous Version | Graphics & Text | Print | Product List | Glossary On
Versions: 1 2 3 4 5 6 7 8 9 10 11 12 13 14 15 16 17 18 19 20 21 22 23 24 25
000
FTUS43 KFSD 301122
TAFSUX
TAF
KSUX 301122Z 3012/3112 VRB05KT P6SM SCT250
     FM301400 22008KT P6SM SCT130
     FM301600 25014G24KT P6SM SCT200
     FM302000 30017G27KT P6SM SKC
     FM310000 31005KT P6SM SKC
     FM310200 32004KT P6SM SKC=

USA.gov is the U.S. government's official web portal to all federal, state and local government web resources and services.